Time;durP1;ratioP1;P1;durP2;ratioP2;P2;SDS_P1;SDS_P2;PMS_P1;PMS_P2;Temp;Humidity;BMP_temperature;BMP_pressure;BME280_temperature;BME280_humidity;BME280_pressure;Samples;Min_cycle;Max_cycle;Signal;HPM_P1;HPM_P2
2023/09/07 00:01:26;;;;;;;3.20;2.15;;;18.70;99.90;;;;;;5143886;27;20122;-70
2023/09/07 00:03:51;;;;;;;4.18;1.95;;;18.60;99.90;;;;;;5114059;27;20138;-70
2023/09/07 00:06:17;;;;;;;3.08;1.98;;;18.60;99.90;;;;;;5118040;27;20089;-71
2023/09/07 00:08:44;;;;;;;4.35;2.05;;;18.60;99.90;;;;;;5127236;27;20027;-71
2023/09/07 00:11:09;;;;;;;2.63;1.77;;;18.50;99.90;;;;;;5131813;27;20030;-71
2023/09/07 00:13:36;;;;;;;4.97;2.30;;;18.50;99.90;;;;;;5145213;27;20146;-71
2023/09/07 00:16:03;;;;;;;6.45;1.88;;;18.50;99.90;;;;;;5117618;27;20544;-70
2023/09/07 00:18:30;;;;;;;3.95;1.67;;;18.50;99.90;;;;;;5112373;27;20253;-70
2023/09/07 00:20:55;;;;;;;3.42;2.00;;;18.40;99.90;;;;;;5109869;27;20564;-71
2023/09/07 00:23:21;;;;;;;3.42;2.08;;;18.40;99.90;;;;;;5109301;27;20031;-71
2023/09/07 00:25:47;;;;;;;3.67;2.22;;;18.40;99.90;;;;;;5134010;27;20043;-70
2023/09/07 00:28:12;;;;;;;2.95;1.90;;;18.30;99.90;;;;;;5144982;27;20058;-71
2023/09/07 00:30:39;;;;;;;3.50;1.98;;;18.30;99.90;;;;;;5108586;27;20120;-70
2023/09/07 00:33:04;;;;;;;3.67;2.08;;;18.30;99.90;;;;;;5126958;27;20043;-71
2023/09/07 00:35:30;;;;;;;3.95;2.22;;;18.30;99.90;;;;;;5108114;27;20077;-71
2023/09/07 00:37:55;;;;;;;3.28;1.75;;;18.30;99.90;;;;;;5130540;27;20039;-70
2023/09/07 00:40:22;;;;;;;4.85;2.20;;;18.20;99.90;;;;;;5107974;27;20036;-71
2023/09/07 00:42:47;;;;;;;4.38;2.08;;;18.20;99.90;;;;;;5114076;27;20441;-71
2023/09/07 00:45:13;;;;;;;3.45;2.00;;;18.20;99.90;;;;;;5108829;27;20042;-71
2023/09/07 00:47:39;;;;;;;3.33;2.00;;;18.20;99.90;;;;;;5132462;27;20047;-71
2023/09/07 00:50:06;;;;;;;3.33;2.05;;;18.20;99.90;;;;;;5099420;27;20587;-70
2023/09/07 00:52:33;;;;;;;3.67;2.30;;;18.10;99.90;;;;;;5103978;27;20077;-71
2023/09/07 00:55:01;;;;;;;3.65;2.13;;;18.10;99.90;;;;;;5112387;27;20043;-71
2023/09/07 00:57:27;;;;;;;5.20;2.15;;;18.10;99.90;;;;;;5113660;27;20066;-71
2023/09/07 00:59:54;;;;;;;3.25;1.70;;;18.10;99.90;;;;;;5125298;27;20071;-70
2023/09/07 01:02:19;;;;;;;4.32;2.17;;;18.10;99.90;;;;;;5129817;27;20114;-71
2023/09/07 01:04:45;;;;;;;3.70;2.13;;;18.10;99.90;;;;;;5124068;27;20111;-70
2023/09/07 01:07:23;;;;;;;3.97;2.15;;;18.00;99.90;;;;;;5108193;27;20046;-71
2023/09/07 01:09:57;;;;;;;4.53;2.08;;;18.10;99.90;;;;;;5109861;27;20100;-70
2023/09/07 01:12:23;;;;;;;7.30;2.35;;;18.10;99.90;;;;;;5107157;27;20074;-70
2023/09/07 01:14:49;;;;;;;4.78;2.20;;;18.00;99.90;;;;;;5135143;27;20085;-71
2023/09/07 01:17:15;;;;;;;4.68;2.03;;;18.00;99.90;;;;;;5127403;27;20485;-71
2023/09/07 01:19:41;;;;;;;4.53;2.13;;;18.10;99.90;;;;;;5136913;27;20043;-71
2023/09/07 01:22:08;;;;;;;3.50;2.00;;;18.00;99.90;;;;;;5103796;27;20499;-70
2023/09/07 01:24:37;;;;;;;6.53;2.17;;;18.00;99.90;;;;;;5136877;27;20602;-70
2023/09/07 01:27:04;;;;;;;4.13;2.42;;;18.00;99.90;;;;;;5111527;27;20042;-71
2023/09/07 01:29:30;;;;;;;3.55;2.20;;;18.00;99.90;;;;;;5106395;27;20043;-70
2023/09/07 01:31:57;;;;;;;3.28;2.17;;;18.00;99.90;;;;;;5104207;27;20047;-70
2023/09/07 01:34:23;;;;;;;4.65;1.83;;;17.90;99.90;;;;;;5127786;27;20038;-71
2023/09/07 01:36:49;;;;;;;3.58;2.03;;;17.90;99.90;;;;;;5124097;27;20039;-71
2023/09/07 01:39:16;;;;;;;3.55;1.95;;;17.90;99.90;;;;;;5124633;27;20034;-71
2023/09/07 01:41:42;;;;;;;3.15;1.60;;;17.90;99.90;;;;;;5115035;27;20050;-71
2023/09/07 01:44:08;;;;;;;4.07;2.05;;;17.90;99.90;;;;;;5116192;27;20043;-70
2023/09/07 01:46:35;;;;;;;4.50;2.25;;;17.80;99.90;;;;;;5152431;27;20042;-71
2023/09/07 01:49:01;;;;;;;4.47;2.30;;;17.80;99.90;;;;;;5106955;27;20039;-71
2023/09/07 01:51:27;;;;;;;4.30;2.20;;;17.80;99.90;;;;;;5086424;28;20046;-70
2023/09/07 01:53:53;;;;;;;6.50;2.22;;;17.70;99.90;;;;;;5107780;27;20051;-72
2023/09/07 01:56:19;;;;;;;6.72;2.30;;;17.70;99.90;;;;;;5113550;27;20925;-70
2023/09/07 01:58:44;;;;;;;3.72;2.20;;;17.70;99.90;;;;;;5111539;27;20485;-70
2023/09/07 02:01:29;;;;;;;3.33;1.90;;;17.70;99.90;;;;;;5110455;27;20110;-71
2023/09/07 02:03:55;;;;;;;4.43;2.35;;;17.60;99.90;;;;;;5125213;27;20035;-71
2023/09/07 02:06:20;;;;;;;3.47;1.52;;;17.60;99.90;;;;;;5150989;27;20551;-70
2023/09/07 02:08:46;;;;;;;2.90;1.73;;;17.60;99.90;;;;;;5112685;27;20035;-71
2023/09/07 02:11:12;;;;;;;3.13;1.90;;;17.60;99.90;;;;;;5129520;27;20043;-71
2023/09/07 02:13:41;;;;;;;5.40;2.28;;;17.50;99.90;;;;;;5142618;27;20539;-70
2023/09/07 02:16:06;;;;;;;3.53;2.00;;;17.50;99.90;;;;;;5122082;27;20055;-71
2023/09/07 02:18:33;;;;;;;4.93;2.13;;;17.40;99.90;;;;;;5090899;27;20044;-70
2023/09/07 02:21:05;;;;;;;4.95;1.88;;;17.50;99.90;;;;;;5120342;27;20401;-70
2023/09/07 02:23:32;;;;;;;3.50;2.08;;;17.40;99.90;;;;;;5125080;27;20042;-71
2023/09/07 02:25:58;;;;;;;3.95;2.03;;;17.40;99.90;;;;;;5109148;27;20042;-71
2023/09/07 02:28:24;;;;;;;5.00;2.35;;;17.40;99.90;;;;;;5128850;27;20027;-71
2023/09/07 02:30:50;;;;;;;3.20;2.03;;;17.40;99.90;;;;;;5104718;27;20035;-70
2023/09/07 02:33:15;;;;;;;4.20;2.20;;;17.30;99.90;;;;;;5108157;27;20042;-70
2023/09/07 02:35:41;;;;;;;3.85;2.15;;;17.40;99.90;;;;;;5129360;27;20549;-70
2023/09/07 02:38:06;;;;;;;3.65;2.28;;;17.30;99.90;;;;;;5130671;27;20038;-71
2023/09/07 02:40:32;;;;;;;3.05;2.22;;;17.30;99.90;;;;;;5140074;27;20412;-71
2023/09/07 02:42:57;;;;;;;4.05;1.80;;;17.30;99.90;;;;;;5128836;27;20182;-70
2023/09/07 02:45:23;;;;;;;4.47;2.35;;;17.30;99.90;;;;;;5154273;27;20074;-71
2023/09/07 02:47:50;;;;;;;4.75;2.65;;;17.30;99.90;;;;;;5142128;27;20039;-71
2023/09/07 02:50:17;;;;;;;3.88;2.10;;;17.30;99.90;;;;;;5124496;27;20078;-70
2023/09/07 02:52:43;;;;;;;5.85;2.58;;;17.20;99.90;;;;;;5122029;27;20027;-70
2023/09/07 02:55:09;;;;;;;4.43;2.38;;;17.20;99.90;;;;;;5122444;27;20035;-71
2023/09/07 02:57:35;;;;;;;4.78;2.20;;;17.20;99.90;;;;;;5145416;27;20516;-71
2023/09/07 03:00:01;;;;;;;5.10;3.13;;;17.20;99.90;;;;;;5108045;27;20454;-71
2023/09/07 03:02:28;;;;;;;3.63;2.30;;;17.20;99.90;;;;;;5102254;27;20112;-70
2023/09/07 03:04:54;;;;;;;4.18;2.25;;;17.10;99.90;;;;;;5098554;27;20045;-71
2023/09/07 03:07:20;;;;;;;3.55;2.17;;;17.10;99.90;;;;;;5128250;27;20142;-70
2023/09/07 03:09:46;;;;;;;3.35;2.28;;;17.10;99.90;;;;;;5093442;27;20122;-70
2023/09/07 03:12:11;;;;;;;4.78;2.40;;;17.10;99.90;;;;;;5103385;27;20046;-70
2023/09/07 03:14:37;;;;;;;3.72;2.40;;;17.10;99.90;;;;;;5130869;27;20083;-71
2023/09/07 03:17:03;;;;;;;4.05;2.30;;;17.10;99.90;;;;;;5142859;27;20047;-71
2023/09/07 03:19:29;;;;;;;4.32;2.50;;;17.10;99.90;;;;;;5118654;28;20107;-71
2023/09/07 03:21:55;;;;;;;5.35;2.22;;;17.00;99.90;;;;;;5103931;28;20464;-71
2023/09/07 03:24:20;;;;;;;5.68;3.00;;;17.10;99.90;;;;;;5114373;27;20113;-71
2023/09/07 03:26:46;;;;;;;4.72;2.78;;;17.10;99.90;;;;;;5105095;27;20437;-70
2023/09/07 03:29:11;;;;;;;6.13;2.67;;;17.10;99.90;;;;;;5131758;27;20096;-70
2023/09/07 03:31:37;;;;;;;4.57;2.42;;;17.10;99.90;;;;;;5105806;28;20047;-70
2023/09/07 03:34:03;;;;;;;3.95;2.30;;;17.10;99.90;;;;;;5125328;28;20420;-70
2023/09/07 03:36:28;;;;;;;3.67;2.17;;;17.10;99.90;;;;;;5097206;28;20032;-71
2023/09/07 03:38:54;;;;;;;4.18;2.47;;;17.10;99.90;;;;;;5105026;27;20036;-71
2023/09/07 03:41:19;;;;;;;4.20;2.60;;;17.00;99.90;;;;;;5123537;27;20065;-70
2023/09/07 03:43:45;;;;;;;6.28;2.78;;;17.10;99.90;;;;;;5115642;27;20557;-71
2023/09/07 03:46:10;;;;;;;4.93;2.78;;;17.10;99.90;;;;;;5130438;27;20121;-71
2023/09/07 03:48:36;;;;;;;5.20;2.75;;;17.10;99.90;;;;;;5157876;27;20077;-71
2023/09/07 03:51:06;;;;;;;6.55;2.58;;;17.10;99.90;;;;;;5146782;27;20047;-70
2023/09/07 03:53:32;;;;;;;4.82;2.80;;;17.10;99.90;;;;;;5115937;27;21690;-70
2023/09/07 03:55:57;;;;;;;4.72;2.67;;;17.10;99.90;;;;;;5140477;27;20040;-70
2023/09/07 03:58:23;;;;;;;3.97;2.53;;;17.10;99.90;;;;;;5124795;27;20584;-70
2023/09/07 04:00:49;;;;;;;4.32;2.47;;;17.10;99.90;;;;;;5132147;27;20114;-70
2023/09/07 04:03:14;;;;;;;5.35;2.38;;;17.20;99.90;;;;;;5146417;27;20149;-71
2023/09/07 04:05:40;;;;;;;6.35;3.22;;;17.20;99.90;;;;;;5132074;27;20066;-71
2023/09/07 04:08:07;;;;;;;5.90;2.65;;;17.20;99.90;;;;;;5146274;27;20049;-70
2023/09/07 04:10:33;;;;;;;5.20;2.70;;;17.20;99.90;;;;;;5140906;27;20514;-70
2023/09/07 04:12:58;;;;;;;5.57;2.85;;;17.20;99.90;;;;;;5127072;27;20035;-70
2023/09/07 04:15:25;;;;;;;4.95;2.83;;;17.10;99.90;;;;;;5151134;27;20034;-71
2023/09/07 04:17:51;;;;;;;6.00;2.97;;;17.20;99.90;;;;;;5125816;27;20056;-70
2023/09/07 04:20:17;;;;;;;7.45;2.63;;;17.20;99.90;;;;;;5092746;27;20051;-70
2023/09/07 04:22:42;;;;;;;5.80;3.15;;;17.20;99.90;;;;;;5125728;27;20093;-71
2023/09/07 04:25:08;;;;;;;7.32;3.10;;;17.10;99.90;;;;;;5151076;27;20449;-71
2023/09/07 04:27:34;;;;;;;6.38;2.88;;;17.10;99.90;;;;;;5135416;27;20409;-70
2023/09/07 04:29:59;;;;;;;5.22;2.60;;;17.20;99.90;;;;;;5111310;27;20039;-71
2023/09/07 04:32:25;;;;;;;6.60;2.97;;;17.10;99.90;;;;;;5130389;27;20042;-71
2023/09/07 04:34:56;;;;;;;4.93;2.88;;;17.10;99.90;;;;;;5118746;27;20050;-70
2023/09/07 04:37:22;;;;;;;5.30;3.03;;;17.10;99.90;;;;;;5109716;27;20043;-70
2023/09/07 04:39:55;;;;;;;5.22;3.22;;;17.10;99.90;;;;;;5141899;27;20395;-71
2023/09/07 04:42:20;;;;;;;5.82;2.85;;;17.10;99.90;;;;;;5119283;27;20037;-71
2023/09/07 04:44:49;;;;;;;5.35;3.03;;;17.10;99.90;;;;;;5111803;27;20110;-71
2023/09/07 04:47:17;;;;;;;6.47;2.90;;;17.10;99.90;;;;;;5129578;27;20049;-71
2023/09/07 04:49:49;;;;;;;7.25;3.45;;;17.00;99.90;;;;;;5124982;27;20028;-71
2023/09/07 04:52:15;;;;;;;6.55;3.22;;;17.10;99.90;;;;;;5097756;27;20469;-71
2023/09/07 04:54:40;;;;;;;8.02;2.90;;;17.00;99.90;;;;;;5111059;27;20072;-71
2023/09/07 04:57:06;;;;;;;5.97;3.03;;;17.10;99.90;;;;;;5161059;27;20047;-70
2023/09/07 04:59:32;;;;;;;5.85;2.97;;;17.10;99.90;;;;;;5125348;27;20023;-70
2023/09/07 05:02:01;;;;;;;5.80;3.22;;;17.10;99.90;;;;;;5103222;27;20063;-71
2023/09/07 05:04:27;;;;;;;4.40;3.20;;;17.10;99.90;;;;;;5119795;27;20083;-71
2023/09/07 05:06:53;;;;;;;5.00;2.90;;;17.10;99.90;;;;;;5126167;27;20110;-70
2023/09/07 05:09:20;;;;;;;4.95;2.92;;;17.10;99.90;;;;;;5116392;27;20117;-70
2023/09/07 05:11:45;;;;;;;5.53;3.00;;;17.10;99.90;;;;;;5130149;27;20083;-71
2023/09/07 05:14:11;;;;;;;6.18;2.67;;;17.10;99.90;;;;;;5125374;27;20043;-70
2023/09/07 05:16:37;;;;;;;5.43;3.38;;;17.10;99.90;;;;;;5089159;27;20205;-70
2023/09/07 05:19:03;;;;;;;6.15;2.85;;;17.00;99.90;;;;;;5121613;27;20039;-70
2023/09/07 05:21:28;;;;;;;5.00;2.70;;;17.00;99.90;;;;;;5119078;27;20031;-70
2023/09/07 05:23:54;;;;;;;7.05;3.03;;;17.10;99.90;;;;;;5118252;27;20038;-71
2023/09/07 05:26:25;;;;;;;5.53;2.90;;;17.00;99.90;;;;;;5131256;27;20046;-70
2023/09/07 05:28:51;;;;;;;5.05;2.92;;;17.00;99.90;;;;;;5142295;27;20516;-70
2023/09/07 05:31:17;;;;;;;6.32;3.00;;;17.10;99.90;;;;;;5107480;27;20023;-70
2023/09/07 05:33:42;;;;;;;9.52;3.42;;;17.00;99.90;;;;;;5131215;27;20515;-71
2023/09/07 05:36:08;;;;;;;4.78;3.22;;;17.00;99.90;;;;;;5125170;27;20567;-70
2023/09/07 05:38:34;;;;;;;5.97;3.38;;;17.00;99.90;;;;;;5124677;27;20036;-70
2023/09/07 05:40:59;;;;;;;6.38;3.45;;;17.00;99.90;;;;;;5127673;27;20039;-71
2023/09/07 05:43:25;;;;;;;9.23;3.28;;;17.10;99.90;;;;;;5141827;27;20373;-71
2023/09/07 05:45:50;;;;;;;6.47;3.53;;;17.10;99.90;;;;;;5144769;27;20050;-71
2023/09/07 05:48:16;;;;;;;5.70;2.92;;;17.10;99.90;;;;;;5126647;27;20050;-71
2023/09/07 05:50:43;;;;;;;6.93;3.17;;;17.10;99.90;;;;;;5093253;27;20464;-71
2023/09/07 05:53:08;;;;;;;5.85;2.80;;;17.10;99.90;;;;;;5106370;27;20545;-72
2023/09/07 05:55:34;;;;;;;6.05;3.42;;;17.10;99.90;;;;;;5129021;27;20043;-71
2023/09/07 05:58:03;;;;;;;5.38;3.47;;;17.10;99.90;;;;;;5105709;27;20723;-71
2023/09/07 06:00:29;;;;;;;7.80;3.83;;;17.10;99.90;;;;;;5123313;27;20409;-71
2023/09/07 06:02:55;;;;;;;8.27;3.90;;;17.10;99.90;;;;;;5144593;27;20038;-71
2023/09/07 06:05:21;;;;;;;9.30;3.92;;;17.10;99.90;;;;;;5105149;27;20504;-71
2023/09/07 06:07:46;;;;;;;6.72;3.33;;;17.10;99.90;;;;;;5116076;27;20096;-71
2023/09/07 06:10:12;;;;;;;6.10;3.40;;;17.20;99.90;;;;;;5133941;27;20039;-71
2023/09/07 06:12:38;;;;;;;5.88;3.33;;;17.20;99.90;;;;;;5128504;27;20548;-71
2023/09/07 06:15:04;;;;;;;7.72;3.72;;;17.20;99.90;;;;;;5124172;27;20099;-71
2023/09/07 06:17:29;;;;;;;6.97;3.40;;;17.20;99.90;;;;;;5125378;27;20083;-70
2023/09/07 06:19:55;;;;;;;6.50;3.45;;;17.20;99.90;;;;;;5110878;27;20062;-71
2023/09/07 06:22:21;;;;;;;6.28;3.50;;;17.30;99.90;;;;;;5114608;27;20084;-71
2023/09/07 06:24:47;;;;;;;5.65;3.47;;;17.30;99.90;;;;;;5107646;27;20035;-71
2023/09/07 06:27:12;;;;;;;7.10;3.35;;;17.30;99.90;;;;;;5116843;27;20047;-71
2023/09/07 06:29:38;;;;;;;5.78;3.50;;;17.30;99.90;;;;;;5127129;27;20377;-72
2023/09/07 06:32:04;;;;;;;6.35;3.58;;;17.40;99.90;;;;;;5133587;27;20073;-72
2023/09/07 06:34:30;;;;;;;6.13;3.63;;;17.30;99.90;;;;;;5120251;27;20067;-71
2023/09/07 06:36:55;;;;;;;6.90;3.85;;;17.40;99.90;;;;;;5097091;27;20120;-71
2023/09/07 06:39:21;;;;;;;7.95;4.10;;;17.40;99.90;;;;;;5084056;27;20042;-71
2023/09/07 06:41:47;;;;;;;7.05;3.47;;;17.40;99.90;;;;;;5122323;27;20027;-71
2023/09/07 06:44:12;;;;;;;6.68;3.53;;;17.50;99.90;;;;;;5121713;27;20039;-71
2023/09/07 06:46:38;;;;;;;6.03;3.53;;;17.50;99.90;;;;;;5120390;27;20396;-71
2023/09/07 06:49:03;;;;;;;5.65;3.42;;;17.50;99.90;;;;;;5100243;27;20045;-71
2023/09/07 06:51:31;;;;;;;6.18;3.67;;;17.50;99.90;;;;;;5113467;27;20071;-71
2023/09/07 06:53:57;;;;;;;6.47;3.90;;;17.50;99.90;;;;;;5104947;27;20102;-71
2023/09/07 06:56:23;;;;;;;9.13;4.00;;;17.60;99.90;;;;;;5100345;27;20524;-71
2023/09/07 06:58:49;;;;;;;7.10;3.83;;;17.60;99.90;;;;;;5121993;27;20034;-71
2023/09/07 07:01:15;;;;;;;8.77;4.07;;;17.60;99.90;;;;;;5124209;27;20486;-71
2023/09/07 07:03:41;;;;;;;9.25;4.13;;;17.60;99.90;;;;;;5125272;27;20054;-72
2023/09/07 07:06:07;;;;;;;6.78;4.05;;;17.70;99.90;;;;;;5118232;27;20274;-72
2023/09/07 07:08:33;;;;;;;9.18;3.88;;;17.80;99.90;;;;;;5115800;27;20035;-71
2023/09/07 07:10:59;;;;;;;6.18;3.90;;;17.80;99.90;;;;;;5119616;27;20404;-71
2023/09/07 07:13:25;;;;;;;7.00;3.53;;;17.80;99.90;;;;;;5132720;27;20045;-72
2023/09/07 07:15:51;;;;;;;9.68;4.10;;;17.90;99.90;;;;;;5098678;27;20182;-71
2023/09/07 07:18:17;;;;;;;7.03;3.63;;;17.90;99.90;;;;;;5135903;27;20043;-73
2023/09/07 07:20:46;;;;;;;6.75;3.00;;;18.00;99.90;;;;;;5101790;28;20549;-73
2023/09/07 07:23:15;;;;;;;6.63;3.90;;;18.00;99.90;;;;;;5098789;27;20314;-70
2023/09/07 07:25:40;;;;;;;6.75;3.72;;;18.00;99.90;;;;;;5098841;28;20058;-70
2023/09/07 07:28:07;;;;;;;6.20;3.30;;;18.10;99.90;;;;;;5161782;27;20081;-70
2023/09/07 07:30:37;;;;;;;7.88;3.90;;;18.20;99.90;;;;;;5141474;27;20510;-70
2023/09/07 07:33:04;;;;;;;6.50;3.85;;;18.20;99.90;;;;;;5129435;27;20038;-70
2023/09/07 07:35:30;;;;;;;6.03;3.10;;;18.30;99.90;;;;;;5131392;27;20122;-70
2023/09/07 07:37:56;;;;;;;6.30;3.33;;;18.30;99.90;;;;;;5150601;27;20038;-70
2023/09/07 07:40:21;;;;;;;6.75;3.22;;;18.30;99.90;;;;;;5166608;27;20039;-70
2023/09/07 07:42:47;;;;;;;5.82;3.38;;;18.40;99.90;;;;;;5138700;27;20534;-70
2023/09/07 07:45:14;;;;;;;6.25;3.55;;;18.50;99.90;;;;;;5137061;27;20409;-70
2023/09/07 07:47:42;;;;;;;6.30;2.95;;;18.50;99.90;;;;;;5109184;28;20386;-70
2023/09/07 07:50:08;;;;;;;5.65;3.47;;;18.50;99.90;;;;;;5090045;28;20397;-70
2023/09/07 07:52:34;;;;;;;4.88;3.00;;;18.60;99.90;;;;;;5116349;27;20549;-70
2023/09/07 07:55:00;;;;;;;4.88;3.03;;;18.60;99.90;;;;;;5150029;27;20073;-70
2023/09/07 07:57:26;;;;;;;5.15;3.03;;;18.70;99.90;;;;;;5126614;27;20070;-70
2023/09/07 07:59:51;;;;;;;5.60;3.35;;;18.70;99.90;;;;;;5139718;27;20085;-70
2023/09/07 08:02:17;;;;;;;6.47;3.10;;;18.80;99.90;;;;;;5129782;28;20035;-70
2023/09/07 08:04:42;;;;;;;4.72;2.88;;;18.80;99.90;;;;;;5124984;27;20106;-70
2023/09/07 08:07:08;;;;;;;4.57;2.95;;;18.90;99.90;;;;;;5161774;27;20506;-70
2023/09/07 08:09:34;;;;;;;5.07;3.13;;;19.00;99.90;;;;;;5107050;28;20326;-70
2023/09/07 08:12:03;;;;;;;7.20;3.08;;;19.00;99.90;;;;;;5126909;28;20098;-70
2023/09/07 08:14:29;;;;;;;5.60;3.13;;;19.00;99.90;;;;;;5100916;28;20031;-70
2023/09/07 08:16:54;;;;;;;5.78;2.80;;;19.10;99.90;;;;;;5108280;28;20055;-70
2023/09/07 08:19:20;;;;;;;6.00;3.22;;;19.10;99.90;;;;;;5073662;28;20088;-70
2023/09/07 08:21:46;;;;;;;5.22;3.15;;;19.20;99.90;;;;;;5155484;27;20066;-70
2023/09/07 08:24:12;;;;;;;4.90;2.83;;;19.30;99.90;;;;;;5147667;27;20046;-70
2023/09/07 08:26:38;;;;;;;5.72;3.25;;;19.30;99.90;;;;;;5138127;27;20110;-70
2023/09/07 08:29:08;;;;;;;9.98;3.88;;;19.30;99.90;;;;;;5152017;27;20374;-70
2023/09/07 08:31:34;;;;;;;5.25;3.17;;;19.40;99.90;;;;;;5114696;27;20054;-70
2023/09/07 08:34:05;;;;;;;5.35;3.00;;;19.40;99.90;;;;;;5118654;27;20061;-70
2023/09/07 08:36:33;;;;;;;5.68;2.55;;;19.50;99.90;;;;;;5107376;27;20036;-70
2023/09/07 08:39:10;;;;;;;5.80;3.00;;;19.50;99.90;;;;;;5115037;27;20139;-70
2023/09/07 08:41:43;;;;;;;4.35;2.92;;;19.60;99.90;;;;;;5136948;27;20053;-71
2023/09/07 08:44:15;;;;;;;4.22;2.28;;;19.60;99.90;;;;;;5123878;27;20034;-71
2023/09/07 08:46:42;;;;;;;5.10;2.67;;;19.70;99.90;;;;;;5097680;27;20512;-71
2023/09/07 08:49:09;;;;;;;5.20;3.22;;;19.70;99.90;;;;;;5132255;27;20046;-71
2023/09/07 08:51:37;;;;;;;5.03;2.67;;;19.70;99.90;;;;;;5115042;27;20118;-71
2023/09/07 08:54:03;;;;;;;5.03;2.60;;;19.80;99.90;;;;;;5149665;27;20483;-71
2023/09/07 08:56:29;;;;;;;5.07;2.53;;;19.90;99.90;;;;;;5126059;27;20031;-71
2023/09/07 08:58:54;;;;;;;4.22;2.90;;;19.90;99.90;;;;;;5114458;27;20053;-71
2023/09/07 12:05:30;;;;;;;3.40;1.80;;;22.90;99.90;;;;;;5031621;27;21026;-69
2023/09/07 12:07:55;;;;;;;3.58;2.00;;;22.90;99.90;;;;;;5028515;27;20069;-70
2023/09/07 12:10:21;;;;;;;3.85;2.13;;;22.90;99.90;;;;;;5031584;27;20038;-70
2023/09/07 12:12:47;;;;;;;3.95;1.90;;;22.90;99.90;;;;;;5031706;27;20033;-70
2023/09/07 12:15:13;;;;;;;6.40;2.20;;;23.00;99.90;;;;;;5031273;27;20123;-69
2023/09/07 12:17:39;;;;;;;4.07;2.20;;;23.00;99.90;;;;;;5030305;27;20041;-70
2023/09/07 12:20:09;;;;;;;3.53;2.30;;;23.10;99.90;;;;;;5030845;27;20046;-70
2023/09/07 12:22:38;;;;;;;3.38;2.03;;;23.00;99.90;;;;;;5026315;27;20033;-70
2023/09/07 12:25:06;;;;;;;4.18;2.10;;;23.10;99.90;;;;;;5007132;27;20086;-71
2023/09/07 12:27:34;;;;;;;5.22;2.30;;;23.10;99.90;;;;;;5030010;27;20392;-70
2023/09/07 12:30:00;;;;;;;3.83;1.80;;;23.20;99.90;;;;;;5031228;27;20033;-70
2023/09/07 12:32:25;;;;;;;4.03;2.10;;;23.20;99.90;;;;;;5021936;27;20060;-70
2023/09/07 12:34:53;;;;;;;4.43;2.15;;;23.20;99.90;;;;;;5018360;27;20077;-70
2023/09/07 12:37:19;;;;;;;5.30;2.15;;;23.30;99.90;;;;;;5008056;27;20169;-70
2023/09/07 12:39:45;;;;;;;3.63;2.20;;;23.30;99.90;;;;;;5031873;27;20049;-70
2023/09/07 12:42:10;;;;;;;3.67;2.10;;;23.30;99.90;;;;;;5029886;27;20095;-70
2023/09/07 12:44:36;;;;;;;3.55;2.17;;;23.40;99.90;;;;;;5027253;27;20045;-70
2023/09/07 12:47:01;;;;;;;6.78;2.05;;;23.40;99.90;;;;;;5125443;27;20041;-70
2023/09/07 12:49:27;;;;;;;4.38;2.30;;;23.40;99.90;;;;;;5030342;27;20030;-70
2023/09/07 12:51:52;;;;;;;4.97;1.95;;;23.40;99.90;;;;;;5036332;27;20432;-70
2023/09/07 12:54:18;;;;;;;4.97;2.92;;;23.50;99.90;;;;;;5031711;27;20045;-70
2023/09/07 12:56:44;;;;;;;4.00;2.33;;;23.50;99.90;;;;;;5025346;27;20041;-70
2023/09/07 12:59:10;;;;;;;3.78;2.40;;;23.50;99.90;;;;;;5032934;27;20036;-69
2023/09/07 13:01:36;;;;;;;6.22;3.22;;;23.60;99.90;;;;;;5032843;27;20039;-69
2023/09/07 13:04:02;;;;;;;3.25;1.83;;;23.60;99.90;;;;;;5026732;27;20057;-70
2023/09/07 13:06:28;;;;;;;3.85;2.00;;;23.60;99.90;;;;;;5120025;27;20416;-69
2023/09/07 13:08:53;;;;;;;4.22;2.05;;;23.70;99.90;;;;;;5012644;27;20045;-70
2023/09/07 13:11:19;;;;;;;6.70;2.33;;;23.70;99.90;;;;;;5027402;27;20093;-70
2023/09/07 13:13:44;;;;;;;4.55;2.40;;;23.70;99.90;;;;;;5037532;27;20037;-70
2023/09/07 13:16:11;;;;;;;3.92;1.98;;;23.70;99.90;;;;;;5022595;27;20042;-70
2023/09/07 13:18:37;;;;;;;4.53;2.22;;;23.70;99.90;;;;;;5016241;28;20047;-70
2023/09/07 13:21:02;;;;;;;2.80;1.83;;;23.70;99.90;;;;;;5015114;28;20033;-70
2023/09/07 13:23:28;;;;;;;3.50;2.20;;;23.70;99.90;;;;;;5016282;27;20136;-70
2023/09/07 13:25:57;;;;;;;4.82;2.20;;;23.80;99.80;;;;;;5019282;28;20040;-70
2023/09/07 13:28:23;;;;;;;4.97;2.28;;;23.80;99.70;;;;;;5002441;28;20037;-70
2023/09/07 13:30:50;;;;;;;3.28;1.90;;;23.80;99.80;;;;;;5021681;28;20051;-70
2023/09/07 13:33:16;;;;;;;3.70;1.98;;;23.80;99.50;;;;;;5016799;28;20042;-70
2023/09/07 13:35:41;;;;;;;3.35;1.92;;;23.80;99.40;;;;;;5021005;27;20392;-70
2023/09/07 13:38:07;;;;;;;4.47;2.03;;;23.90;99.40;;;;;;5012920;27;20552;-70
2023/09/07 13:40:32;;;;;;;3.47;2.13;;;23.90;99.30;;;;;;5015794;27;20489;-70
2023/09/07 13:42:59;;;;;;;5.15;2.28;;;23.90;99.20;;;;;;5018128;28;20467;-70
2023/09/07 13:45:24;;;;;;;4.70;2.05;;;23.90;98.90;;;;;;5014424;27;20526;-70
2023/09/07 13:47:50;;;;;;;6.18;2.15;;;24.00;98.80;;;;;;5015812;27;20042;-70
2023/09/07 13:50:16;;;;;;;3.72;2.10;;;24.00;98.70;;;;;;5011020;28;20061;-70
2023/09/07 13:52:41;;;;;;;3.65;2.28;;;24.10;98.50;;;;;;5014432;27;20042;-70
2023/09/07 13:55:07;;;;;;;3.75;1.90;;;24.10;98.40;;;;;;5010388;28;20049;-69
2023/09/07 13:57:34;;;;;;;4.97;2.05;;;24.10;98.30;;;;;;5017957;28;20102;-70
2023/09/07 14:00:00;;;;;;;3.33;1.73;;;24.10;98.30;;;;;;5012475;28;20064;-70
2023/09/07 14:02:25;;;;;;;3.78;2.05;;;24.10;98.30;;;;;;5020010;28;20087;-70
2023/09/07 14:04:51;;;;;;;4.82;2.40;;;24.10;98.10;;;;;;5006726;28;20578;-70
2023/09/07 14:07:17;;;;;;;4.35;2.15;;;24.10;97.90;;;;;;5032883;27;20044;-71
2023/09/07 14:09:43;;;;;;;4.45;2.40;;;24.10;97.70;;;;;;5023043;28;20414;-70
2023/09/07 14:12:09;;;;;;;5.85;2.17;;;24.10;97.80;;;;;;5014162;28;20140;-70
2023/09/07 14:14:35;;;;;;;3.28;2.03;;;24.10;97.70;;;;;;5015401;28;20052;-70
2023/09/07 14:17:01;;;;;;;4.05;2.00;;;24.10;97.60;;;;;;5015072;27;20033;-70
2023/09/07 14:19:30;;;;;;;3.95;2.13;;;24.20;97.40;;;;;;5019065;28;20142;-70
2023/09/07 14:21:57;;;;;;;3.53;2.10;;;24.10;97.20;;;;;;5019013;27;20056;-70
2023/09/07 14:24:23;;;;;;;3.28;1.90;;;24.10;97.00;;;;;;5015454;27;20056;-70
2023/09/07 14:26:49;;;;;;;4.72;2.30;;;24.20;96.80;;;;;;5018614;28;20618;-70
2023/09/07 14:29:14;;;;;;;4.07;2.05;;;24.20;96.70;;;;;;5017044;27;20501;-70
2023/09/07 14:31:42;;;;;;;3.30;1.88;;;24.20;96.50;;;;;;5010790;28;20048;-70
2023/09/07 14:34:07;;;;;;;4.75;1.80;;;24.20;96.50;;;;;;5023591;27;20494;-70
2023/09/07 14:36:33;;;;;;;3.83;2.20;;;24.20;96.40;;;;;;5016576;27;20039;-70
2023/09/07 14:39:02;;;;;;;3.95;2.15;;;24.20;96.30;;;;;;4998966;27;20053;-70
2023/09/07 14:41:30;;;;;;;4.53;2.20;;;24.20;96.30;;;;;;4995783;28;20045;-70
2023/09/07 14:43:55;;;;;;;8.02;2.17;;;24.20;96.20;;;;;;5023330;27;20064;-70
2023/09/07 14:46:23;;;;;;;4.97;2.03;;;24.20;96.00;;;;;;5011451;28;21258;-70
2023/09/07 14:48:49;;;;;;;3.65;2.10;;;24.20;95.90;;;;;;5012923;28;20120;-70
2023/09/07 14:51:15;;;;;;;3.20;1.50;;;24.20;95.90;;;;;;5019247;28;20041;-70
2023/09/07 14:53:40;;;;;;;3.03;1.75;;;24.20;95.90;;;;;;5013466;28;20049;-70
2023/09/07 14:56:06;;;;;;;2.75;1.77;;;24.30;95.80;;;;;;5026302;27;20138;-70
2023/09/07 14:58:32;;;;;;;4.43;2.42;;;24.20;95.80;;;;;;5013717;27;20495;-70
2023/09/07 15:00:58;;;;;;;3.40;2.10;;;24.20;95.80;;;;;;5007882;28;20044;-70
2023/09/07 15:03:23;;;;;;;5.38;2.08;;;24.20;95.90;;;;;;5019644;28;20400;-70
2023/09/07 15:05:49;;;;;;;4.53;2.30;;;24.20;95.90;;;;;;5018053;28;20050;-69
2023/09/07 15:08:15;;;;;;;5.28;1.95;;;24.20;96.00;;;;;;5010548;28;20601;-70
2023/09/07 15:10:41;;;;;;;4.22;2.05;;;24.20;95.90;;;;;;5015738;28;20505;-70
2023/09/07 15:13:08;;;;;;;3.20;1.90;;;24.30;96.10;;;;;;5011417;28;20585;-70
2023/09/07 15:15:37;;;;;;;6.20;2.13;;;24.30;95.60;;;;;;4999892;28;20666;-70
2023/09/07 15:18:03;;;;;;;4.50;1.77;;;24.30;95.70;;;;;;5020026;27;20033;-69
2023/09/07 15:20:29;;;;;;;3.10;1.90;;;24.20;95.70;;;;;;5016829;28;20677;-69
2023/09/07 15:22:55;;;;;;;4.88;2.20;;;24.30;95.80;;;;;;5017405;28;20197;-69
2023/09/07 15:25:20;;;;;;;3.00;1.65;;;24.30;95.90;;;;;;5019133;28;20056;-69
2023/09/07 15:27:46;;;;;;;4.90;2.15;;;24.30;95.90;;;;;;5009840;28;20395;-70
2023/09/07 15:30:15;;;;;;;4.93;1.73;;;24.20;95.80;;;;;;5012882;28;20155;-69
2023/09/07 15:32:41;;;;;;;4.47;1.75;;;24.20;95.70;;;;;;5020540;28;20045;-70
2023/09/07 15:35:09;;;;;;;3.40;1.90;;;24.30;95.70;;;;;;5013510;28;20100;-69
2023/09/07 15:37:35;;;;;;;5.70;2.50;;;24.20;95.70;;;;;;5015170;28;20417;-69
2023/09/07 15:40:01;;;;;;;4.13;1.75;;;24.20;95.80;;;;;;5015060;28;20049;-70
2023/09/07 15:42:26;;;;;;;4.03;2.03;;;24.20;95.90;;;;;;5012153;28;20469;-69
2023/09/07 15:44:52;;;;;;;3.20;1.63;;;24.30;96.00;;;;;;5012755;28;20120;-70
2023/09/07 15:47:19;;;;;;;4.18;2.47;;;24.30;95.90;;;;;;5016084;28;20080;-69